sensor_id;sensor_type;location;lat;lon;timestamp;pressure;altitude;pressure_sealevel;temperature;humidity
28626;BME280;18905;42.668;23.364;2022-09-13T00:02:17;94817.69;;;13.73;100.00
28626;BME280;18905;42.668;23.364;2022-09-13T00:04:43;94816.13;;;13.99;100.00
28626;BME280;18905;42.668;23.364;2022-09-13T00:07:08;94766.53;;;13.47;100.00
28626;BME280;18905;42.668;23.364;2022-09-13T00:09:34;94909.06;;;14.75;100.00
28626;BME280;18905;42.668;23.364;2022-09-13T00:12:01;94915.56;;;14.86;100.00
28626;BME280;18905;42.668;23.364;2022-09-13T00:14:27;94829.56;;;14.35;100.00
28626;BME280;18905;42.668;23.364;2022-09-13T00:16:54;94823.16;;;14.28;100.00
28626;BME280;18905;42.668;23.364;2022-09-13T00:30:35;94888.69;;;14.69;100.00
28626;BME280;18905;42.668;23.364;2022-09-13T00:33:07;94747.91;;;13.73;100.00
28626;BME280;18905;42.668;23.364;2022-09-13T00:35:36;94796.91;;;13.92;100.00
28626;BME280;18905;42.668;23.364;2022-09-13T00:38:04;94742.44;;;13.85;100.00
28626;BME280;18905;42.668;23.364;2022-09-13T00:40:36;94883.94;;;14.51;100.00
28626;BME280;18905;42.668;23.364;2022-09-13T00:43:19;94861.03;;;14.36;100.00
28626;BME280;18905;42.668;23.364;2022-09-13T00:45:49;94884.44;;;14.84;100.00
28626;BME280;18905;42.668;23.364;2022-09-13T00:48:21;94875.66;;;14.75;100.00
28626;BME280;18905;42.668;23.364;2022-09-13T00:50:53;94761.50;;;14.01;100.00
28626;BME280;18905;42.668;23.364;2022-09-13T00:53:33;94755.28;;;14.16;100.00
28626;BME280;18905;42.668;23.364;2022-09-13T00:56:31;94813.66;;;14.49;100.00
28626;BME280;18905;42.668;23.364;2022-09-13T00:59:06;94777.81;;;14.16;100.00
28626;BME280;18905;42.668;23.364;2022-09-13T01:01:43;94762.28;;;14.17;100.00
28626;BME280;18905;42.668;23.364;2022-09-13T01:04:11;94741.16;;;14.10;100.00
28626;BME280;18905;42.668;23.364;2022-09-13T01:06:37;94882.78;;;15.10;100.00
28626;BME280;18905;42.668;23.364;2022-09-13T01:09:09;94754.84;;;14.41;100.00
28626;BME280;18905;42.668;23.364;2022-09-13T01:16:52;94880.25;;;15.33;100.00
28626;BME280;18905;42.668;23.364;2022-09-13T03:58:20;94758.66;;;14.25;100.00
28626;BME280;18905;42.668;23.364;2022-09-13T04:00:46;94758.03;;;15.24;100.00
28626;BME280;18905;42.668;23.364;2022-09-13T04:03:13;94738.94;;;16.12;100.00
28626;BME280;18905;42.668;23.364;2022-09-13T04:05:40;94757.91;;;16.69;100.00
28626;BME280;18905;42.668;23.364;2022-09-13T04:08:06;94843.22;;;17.86;100.00
28626;BME280;18905;42.668;23.364;2022-09-13T04:10:34;94835.59;;;18.31;100.00
28626;BME280;18905;42.668;23.364;2022-09-13T04:13:00;94765.09;;;17.81;100.00
28626;BME280;18905;42.668;23.364;2022-09-13T04:15:27;94770.31;;;18.23;100.00
28626;BME280;18905;42.668;23.364;2022-09-13T04:17:54;94766.19;;;18.36;100.00
28626;BME280;18905;42.668;23.364;2022-09-13T04:20:19;94829.38;;;18.64;100.00
28626;BME280;18905;42.668;23.364;2022-09-13T04:22:55;94796.06;;;18.51;100.00
28626;BME280;18905;42.668;23.364;2022-09-13T04:25:22;94882.38;;;19.22;100.00
28626;BME280;18905;42.668;23.364;2022-09-13T04:27:54;94877.69;;;19.22;100.00
28626;BME280;18905;42.668;23.364;2022-09-13T04:30:20;94833.56;;;18.87;100.00
28626;BME280;18905;42.668;23.364;2022-09-13T04:32:46;94845.59;;;18.83;100.00
28626;BME280;18905;42.668;23.364;2022-09-13T04:35:12;94822.97;;;18.86;100.00
28626;BME280;18905;42.668;23.364;2022-09-13T04:37:37;94819.53;;;18.92;100.00
28626;BME280;18905;42.668;23.364;2022-09-13T04:40:05;94848.88;;;19.35;100.00
28626;BME280;18905;42.668;23.364;2022-09-13T04:42:30;94853.81;;;19.63;100.00
28626;BME280;18905;42.668;23.364;2022-09-13T04:44:56;94894.34;;;19.43;100.00
28626;BME280;18905;42.668;23.364;2022-09-13T04:47:21;94828.66;;;18.67;100.00
28626;BME280;18905;42.668;23.364;2022-09-13T04:49:47;94850.47;;;19.00;100.00
28626;BME280;18905;42.668;23.364;2022-09-13T04:52:13;94841.19;;;18.71;100.00
28626;BME280;18905;42.668;23.364;2022-09-13T04:54:39;94882.59;;;19.06;100.00
28626;BME280;18905;42.668;23.364;2022-09-13T04:57:05;94824.63;;;17.98;100.00
28626;BME280;18905;42.668;23.364;2022-09-13T04:59:30;94867.91;;;18.85;100.00
28626;BME280;18905;42.668;23.364;2022-09-13T05:01:56;94854.09;;;17.82;100.00
28626;BME280;18905;42.668;23.364;2022-09-13T05:04:23;94766.44;;;17.94;100.00
28626;BME280;18905;42.668;23.364;2022-09-13T05:06:49;94816.41;;;18.24;100.00
28626;BME280;18905;42.668;23.364;2022-09-13T05:09:15;94861.31;;;17.71;100.00
28626;BME280;18905;42.668;23.364;2022-09-13T05:11:41;94784.31;;;17.59;100.00
28626;BME280;18905;42.668;23.364;2022-09-13T05:14:09;94760.56;;;16.05;100.00
28626;BME280;18905;42.668;23.364;2022-09-13T05:16:35;94799.22;;;15.57;100.00
28626;BME280;18905;42.668;23.364;2022-09-13T05:19:01;94772.19;;;14.99;100.00
28626;BME280;18905;42.668;23.364;2022-09-13T06:59:17;94849.56;;;19.72;84.14
28626;BME280;18905;42.668;23.364;2022-09-13T07:10:21;94826.97;;;19.35;87.73
28626;BME280;18905;42.668;23.364;2022-09-13T07:13:22;94840.34;;;20.80;78.30
28626;BME280;18905;42.668;23.364;2022-09-13T07:16:14;94951.16;;;21.47;74.00
28626;BME280;18905;42.668;23.364;2022-09-13T07:18:43;94837.84;;;20.36;77.06
28626;BME280;18905;42.668;23.364;2022-09-13T07:21:11;94877.09;;;20.54;78.26
28626;BME280;18905;42.668;23.364;2022-09-13T07:23:42;94954.78;;;21.76;70.76
28626;BME280;18905;42.668;23.364;2022-09-13T07:26:10;94839.69;;;21.22;68.88
28626;BME280;18905;42.668;23.364;2022-09-13T07:28:42;94855.81;;;21.51;66.67
28626;BME280;18905;42.668;23.364;2022-09-13T07:31:10;94906.47;;;21.82;64.30
28626;BME280;18905;42.668;23.364;2022-09-13T07:33:37;94847.66;;;20.44;70.79
28626;BME280;18905;42.668;23.364;2022-09-13T07:36:04;94921.72;;;20.44;79.81
28626;BME280;18905;42.668;23.364;2022-09-13T07:38:36;94930.81;;;22.08;67.83
28626;BME280;18905;42.668;23.364;2022-09-13T07:41:04;94956.34;;;22.26;64.47
28626;BME280;18905;42.668;23.364;2022-09-13T07:43:32;94915.41;;;22.66;59.97
28626;BME280;18905;42.668;23.364;2022-09-13T07:46:05;94903.56;;;21.08;66.79
28626;BME280;18905;42.668;23.364;2022-09-13T07:48:33;94842.25;;;19.87;68.39
28626;BME280;18905;42.668;23.364;2022-09-13T07:53:32;94892.91;;;20.85;65.27
28626;BME280;18905;42.668;23.364;2022-09-13T07:58:48;94848.34;;;19.19;72.26
28626;BME280;18905;42.668;23.364;2022-09-13T08:03:42;94903.47;;;19.21;75.51
28626;BME280;18905;42.668;23.364;2022-09-13T08:06:09;94959.72;;;19.52;73.45
28626;BME280;18905;42.668;23.364;2022-09-13T08:08:36;94964.25;;;19.74;74.39
28626;BME280;18905;42.668;23.364;2022-09-13T08:11:05;94972.00;;;19.65;79.25
28626;BME280;18905;42.668;23.364;2022-09-13T08:13:31;94954.19;;;20.39;69.37
28626;BME280;18905;42.668;23.364;2022-09-13T08:16:03;94910.22;;;20.21;67.21
28626;BME280;18905;42.668;23.364;2022-09-13T08:18:29;94895.84;;;20.38;70.63
28626;BME280;18905;42.668;23.364;2022-09-13T08:20:56;94884.41;;;19.72;70.96
28626;BME280;18905;42.668;23.364;2022-09-13T08:23:23;94909.19;;;20.47;67.38
28626;BME280;18905;42.668;23.364;2022-09-13T08:25:49;94842.59;;;19.78;65.60
28626;BME280;18905;42.668;23.364;2022-09-13T08:28:19;94921.41;;;20.60;67.12
28626;BME280;18905;42.668;23.364;2022-09-13T08:30:51;94929.09;;;21.12;62.24
28626;BME280;18905;42.668;23.364;2022-09-13T08:33:16;94843.88;;;20.02;59.60
28626;BME280;18905;42.668;23.364;2022-09-13T08:35:50;94891.03;;;20.21;61.50
28626;BME280;18905;42.668;23.364;2022-09-13T08:38:18;94910.25;;;21.04;58.56
28626;BME280;18905;42.668;23.364;2022-09-13T08:40:57;94903.72;;;21.92;54.78
28626;BME280;18905;42.668;23.364;2022-09-13T08:44:00;94961.00;;;20.66;56.18
28626;BME280;18905;42.668;23.364;2022-09-13T08:46:41;94829.28;;;20.52;58.03
28626;BME280;18905;42.668;23.364;2022-09-13T08:49:14;94944.50;;;21.55;60.01
28626;BME280;18905;42.668;23.364;2022-09-13T08:51:45;94822.81;;;21.69;53.94
28626;BME280;18905;42.668;23.364;2022-09-13T08:54:15;94826.78;;;21.50;49.00
28626;BME280;18905;42.668;23.364;2022-09-13T08:57:00;94941.81;;;22.15;50.72
28626;BME280;18905;42.668;23.364;2022-09-13T09:05:15;94862.84;;;22.19;52.19
28626;BME280;18905;42.668;23.364;2022-09-13T09:07:48;94879.59;;;22.70;49.74
28626;BME280;18905;42.668;23.364;2022-09-13T09:10:24;94840.44;;;22.24;49.70
28626;BME280;18905;42.668;23.364;2022-09-13T09:15:25;94921.75;;;21.65;51.05
28626;BME280;18905;42.668;23.364;2022-09-13T09:18:01;94905.88;;;20.88;53.46
28626;BME280;18905;42.668;23.364;2022-09-13T09:20:48;94949.59;;;22.69;48.70
28626;BME280;18905;42.668;23.364;2022-09-13T09:23:21;94877.97;;;22.86;46.17
28626;BME280;18905;42.668;23.364;2022-09-13T09:26:15;94946.03;;;22.79;46.42
28626;BME280;18905;42.668;23.364;2022-09-13T09:31:42;94905.31;;;21.76;50.63
28626;BME280;18905;42.668;23.364;2022-09-13T09:39:29;94861.63;;;21.08;50.50
28626;BME280;18905;42.668;23.364;2022-09-13T09:41:59;94940.19;;;21.58;50.85
28626;BME280;18905;42.668;23.364;2022-09-13T09:44:29;94854.72;;;20.45;53.83
28626;BME280;18905;42.668;23.364;2022-09-13T09:47:06;94843.97;;;20.12;52.56
28626;BME280;18905;42.668;23.364;2022-09-13T09:49:44;94821.75;;;20.35;53.44
28626;BME280;18905;42.668;23.364;2022-09-13T09:55:36;94908.84;;;21.94;52.18
28626;BME280;18905;42.668;23.364;2022-09-13T09:58:07;94807.91;;;21.28;49.97
28626;BME280;18905;42.668;23.364;2022-09-13T10:00:36;94805.56;;;21.61;49.31
28626;BME280;18905;42.668;23.364;2022-09-13T10:03:07;94901.63;;;22.77;47.68
28626;BME280;18905;42.668;23.364;2022-09-13T10:05:39;94904.84;;;22.26;47.45
28626;BME280;18905;42.668;23.364;2022-09-13T10:08:07;94828.44;;;20.37;49.71
28626;BME280;18905;42.668;23.364;2022-09-13T10:10:56;94778.13;;;20.02;53.38
28626;BME280;18905;42.668;23.364;2022-09-13T10:13:28;94831.09;;;21.48;49.99
28626;BME280;18905;42.668;23.364;2022-09-13T10:15:58;94893.78;;;22.72;47.49
28626;BME280;18905;42.668;23.364;2022-09-13T10:18:26;94822.69;;;22.56;47.09
28626;BME280;18905;42.668;23.364;2022-09-13T10:23:41;94888.78;;;23.32;44.50
28626;BME280;18905;42.668;23.364;2022-09-13T10:26:11;94806.72;;;22.95;43.41
28626;BME280;18905;42.668;23.364;2022-09-13T10:29:06;94889.63;;;23.15;45.74
28626;BME280;18905;42.668;23.364;2022-09-13T10:31:39;94764.19;;;23.07;44.03
28626;BME280;18905;42.668;23.364;2022-09-13T10:34:17;94816.09;;;23.66;41.73
28626;BME280;18905;42.668;23.364;2022-09-13T10:37:04;94875.44;;;24.66;42.07
28626;BME280;18905;42.668;23.364;2022-09-13T10:39:35;94802.22;;;24.17;41.73
28626;BME280;18905;42.668;23.364;2022-09-13T10:42:20;94760.22;;;24.03;42.73
28626;BME280;18905;42.668;23.364;2022-09-13T10:44:55;94829.28;;;23.89;42.40
28626;BME280;18905;42.668;23.364;2022-09-13T10:47:32;94867.50;;;23.90;42.95
28626;BME280;18905;42.668;23.364;2022-09-13T11:01:06;94754.22;;;22.62;44.47
28626;BME280;18905;42.668;23.364;2022-09-13T11:15:16;94740.94;;;22.43;43.94
28626;BME280;18905;42.668;23.364;2022-09-13T12:07:31;94730.53;;;22.03;44.70
28626;BME280;18905;42.668;23.364;2022-09-13T12:10:05;94772.22;;;21.52;44.63
28626;BME280;18905;42.668;23.364;2022-09-13T12:12:34;94693.41;;;21.25;45.81
28626;BME280;18905;42.668;23.364;2022-09-13T12:17:50;94722.47;;;22.54;44.99
28626;BME280;18905;42.668;23.364;2022-09-13T12:20:36;94681.75;;;22.17;41.80
28626;BME280;18905;42.668;23.364;2022-09-13T12:23:15;94746.69;;;22.76;42.63
28626;BME280;18905;42.668;23.364;2022-09-13T12:59:59;94802.84;;;23.51;42.99
28626;BME280;18905;42.668;23.364;2022-09-13T13:02:31;94686.22;;;22.62;41.54
28626;BME280;18905;42.668;23.364;2022-09-13T13:05:03;94810.03;;;22.69;43.01
28626;BME280;18905;42.668;23.364;2022-09-13T13:07:32;94810.81;;;22.70;44.27
28626;BME280;18905;42.668;23.364;2022-09-13T13:10:02;94688.22;;;21.62;44.13
28626;BME280;18905;42.668;23.364;2022-09-13T13:12:35;94693.66;;;21.83;43.67
28626;BME280;18905;42.668;23.364;2022-09-13T13:17:48;94783.00;;;22.36;44.32
28626;BME280;18905;42.668;23.364;2022-09-13T13:36:44;94706.22;;;21.91;44.82
28626;BME280;18905;42.668;23.364;2022-09-13T13:42:00;94797.31;;;21.86;46.15
28626;BME280;18905;42.668;23.364;2022-09-13T13:54:57;94840.06;;;22.04;46.32
28626;BME280;18905;42.668;23.364;2022-09-13T14:00:15;94835.00;;;21.96;46.28
28626;BME280;18905;42.668;23.364;2022-09-13T14:05:41;94821.63;;;22.05;45.58
28626;BME280;18905;42.668;23.364;2022-09-13T14:12:18;94784.25;;;22.25;45.24
28626;BME280;18905;42.668;23.364;2022-09-13T14:15:07;94831.81;;;22.04;45.43
28626;BME280;18905;42.668;23.364;2022-09-13T14:17:55;94834.56;;;22.15;46.72
28626;BME280;18905;42.668;23.364;2022-09-13T14:20:29;94776.16;;;21.76;45.81
28626;BME280;18905;42.668;23.364;2022-09-13T14:23:16;94838.13;;;22.12;45.54
28626;BME280;18905;42.668;23.364;2022-09-13T14:25:53;94736.50;;;21.42;47.21
28626;BME280;18905;42.668;23.364;2022-09-13T14:28:24;94726.72;;;21.37;45.42
28626;BME280;18905;42.668;23.364;2022-09-13T14:30:57;94765.53;;;21.53;44.61
28626;BME280;18905;42.668;23.364;2022-09-13T14:33:32;94723.97;;;21.20;45.38
28626;BME280;18905;42.668;23.364;2022-09-13T14:36:11;94709.47;;;21.30;46.11
28626;BME280;18905;42.668;23.364;2022-09-13T14:38:48;94720.84;;;21.21;46.37
28626;BME280;18905;42.668;23.364;2022-09-13T14:41:32;94796.53;;;21.64;45.46
28626;BME280;18905;42.668;23.364;2022-09-13T14:44:27;94831.09;;;21.48;47.77
28626;BME280;18905;42.668;23.364;2022-09-13T14:47:55;94740.44;;;20.92;47.83
28626;BME280;18905;42.668;23.364;2022-09-13T14:50:40;94836.19;;;21.53;48.87
28626;BME280;18905;42.668;23.364;2022-09-13T14:53:19;94755.34;;;21.50;47.10
28626;BME280;18905;42.668;23.364;2022-09-13T14:55:55;94764.78;;;21.42;46.02
28626;BME280;18905;42.668;23.364;2022-09-13T14:58:43;94722.00;;;20.96;45.64
28626;BME280;18905;42.668;23.364;2022-09-13T15:01:14;94727.50;;;20.96;46.52
28626;BME280;18905;42.668;23.364;2022-09-13T15:03:42;94842.06;;;21.83;46.65
28626;BME280;18905;42.668;23.364;2022-09-13T15:06:22;94727.88;;;21.08;45.60
28626;BME280;18905;42.668;23.364;2022-09-13T15:08:49;94796.94;;;21.56;45.91
28626;BME280;18905;42.668;23.364;2022-09-13T15:11:55;94850.69;;;22.06;46.74
28626;BME280;18905;42.668;23.364;2022-09-13T15:20:20;94805.56;;;21.75;45.75
28626;BME280;18905;42.668;23.364;2022-09-13T15:22:32;94773.38;;;21.62;46.09
28626;BME280;18905;42.668;23.364;2022-09-13T15:25:46;94843.63;;;21.38;46.49
28626;BME280;18905;42.668;23.364;2022-09-13T15:28:15;94710.56;;;20.41;46.62
28626;BME280;18905;42.668;23.364;2022-09-13T15:30:53;94723.13;;;20.56;46.70
28626;BME280;18905;42.668;23.364;2022-09-13T15:33:26;94721.50;;;20.37;45.54
28626;BME280;18905;42.668;23.364;2022-09-13T15:41:39;94725.75;;;20.17;48.62
28626;BME280;18905;42.668;23.364;2022-09-13T15:44:07;94805.81;;;20.68;48.46
28626;BME280;18905;42.668;23.364;2022-09-13T15:46:47;94725.66;;;19.96;50.40
28626;BME280;18905;42.668;23.364;2022-09-13T15:49:16;94811.72;;;20.70;50.56
28626;BME280;18905;42.668;23.364;2022-09-13T15:51:43;94790.06;;;20.41;50.67
28626;BME280;18905;42.668;23.364;2022-09-13T15:54:16;94767.66;;;20.21;53.15
28626;BME280;18905;42.668;23.364;2022-09-13T15:56:44;94854.72;;;20.42;49.22
28626;BME280;18905;42.668;23.364;2022-09-13T15:59:12;94764.09;;;20.10;51.64
28626;BME280;18905;42.668;23.364;2022-09-13T16:01:38;94777.22;;;19.80;51.26
28626;BME280;18905;42.668;23.364;2022-09-13T16:04:04;94800.78;;;19.95;51.59
28626;BME280;18905;42.668;23.364;2022-09-13T16:06:30;94807.66;;;19.68;52.42
28626;BME280;18905;42.668;23.364;2022-09-13T16:08:55;94806.63;;;19.87;51.76
28626;BME280;18905;42.668;23.364;2022-09-13T16:11:21;94816.38;;;19.81;52.32
28626;BME280;18905;42.668;23.364;2022-09-13T16:13:47;94747.22;;;19.40;52.34
28626;BME280;18905;42.668;23.364;2022-09-13T16:16:12;94856.19;;;19.64;53.59
28626;BME280;18905;42.668;23.364;2022-09-13T16:18:39;94816.88;;;19.43;55.03
28626;BME280;18905;42.668;23.364;2022-09-13T16:21:04;94798.84;;;19.35;53.23
28626;BME280;18905;42.668;23.364;2022-09-13T16:23:30;94746.41;;;18.89;55.43
28626;BME280;18905;42.668;23.364;2022-09-13T16:25:57;94769.94;;;18.97;54.41
28626;BME280;18905;42.668;23.364;2022-09-13T16:28:23;94808.38;;;19.11;55.28
28626;BME280;18905;42.668;23.364;2022-09-13T16:30:49;94746.75;;;18.84;54.26
28626;BME280;18905;42.668;23.364;2022-09-13T16:33:14;94776.31;;;18.68;55.07
28626;BME280;18905;42.668;23.364;2022-09-13T16:35:40;94797.34;;;19.04;54.92
28626;BME280;18905;42.668;23.364;2022-09-13T16:38:05;94800.16;;;19.11;56.85
28626;BME280;18905;42.668;23.364;2022-09-13T16:40:32;94818.09;;;19.05;56.74
28626;BME280;18905;42.668;23.364;2022-09-13T16:42:58;94802.56;;;19.16;57.07
28626;BME280;18905;42.668;23.364;2022-09-13T16:45:23;94771.50;;;18.58;60.37
28626;BME280;18905;42.668;23.364;2022-09-13T16:47:49;94797.44;;;18.71;60.52
28626;BME280;18905;42.668;23.364;2022-09-13T16:50:16;94789.09;;;18.97;65.31
28626;BME280;18905;42.668;23.364;2022-09-13T16:52:49;94792.75;;;19.12;61.97
28626;BME280;18905;42.668;23.364;2022-09-13T16:55:19;94766.28;;;18.83;60.90
28626;BME280;18905;42.668;23.364;2022-09-13T16:57:49;94853.81;;;19.63;61.10
28626;BME280;18905;42.668;23.364;2022-09-13T17:00:20;94852.72;;;19.27;60.88
28626;BME280;18905;42.668;23.364;2022-09-13T17:02:58;94901.97;;;19.24;61.67
28626;BME280;18905;42.668;23.364;2022-09-13T17:05:29;94878.50;;;19.23;67.15
28626;BME280;18905;42.668;23.364;2022-09-13T17:08:23;94889.97;;;18.99;64.64
28626;BME280;18905;42.668;23.364;2022-09-13T17:10:55;94797.53;;;18.45;66.67
28626;BME280;18905;42.668;23.364;2022-09-13T17:13:26;94791.84;;;18.61;66.21
28626;BME280;18905;42.668;23.364;2022-09-13T17:15:53;94876.84;;;18.78;66.40
28626;BME280;18905;42.668;23.364;2022-09-13T17:18:21;94815.00;;;18.04;64.73
28626;BME280;18905;42.668;23.364;2022-09-13T17:20:54;94796.50;;;17.94;64.45
28626;BME280;18905;42.668;23.364;2022-09-13T17:23:23;94892.44;;;18.45;70.40
28626;BME280;18905;42.668;23.364;2022-09-13T17:25:57;94833.53;;;18.21;70.75
28626;BME280;18905;42.668;23.364;2022-09-13T17:28:24;94817.66;;;18.01;69.32
28626;BME280;18905;42.668;23.364;2022-09-13T17:30:54;94871.91;;;18.28;67.36
28626;BME280;18905;42.668;23.364;2022-09-13T17:33:24;94860.47;;;18.49;73.78
28626;BME280;18905;42.668;23.364;2022-09-13T17:35:58;94898.28;;;18.76;70.57
28626;BME280;18905;42.668;23.364;2022-09-13T19:50:39;94916.13;;;20.27;100.00
28626;BME280;18905;42.668;23.364;2022-09-13T19:53:08;94889.25;;;20.57;100.00
28626;BME280;18905;42.668;23.364;2022-09-13T19:55:44;94968.84;;;21.57;100.00
28626;BME280;18905;42.668;23.364;2022-09-13T19:58:13;94942.19;;;21.71;92.91
28626;BME280;18905;42.668;23.364;2022-09-13T20:00:45;94888.38;;;21.67;87.85
28626;BME280;18905;42.668;23.364;2022-09-13T20:03:20;94879.78;;;21.86;83.35
28626;BME280;18905;42.668;23.364;2022-09-13T20:05:57;94885.25;;;22.07;73.35
28626;BME280;18905;42.668;23.364;2022-09-13T20:08:23;94957.47;;;22.70;65.64
28626;BME280;18905;42.668;23.364;2022-09-13T20:10:50;94999.16;;;22.65;65.25
28626;BME280;18905;42.668;23.364;2022-09-13T20:13:19;94960.69;;;21.99;61.02
28626;BME280;18905;42.668;23.364;2022-09-13T20:15:46;94886.06;;;21.83;65.80
28626;BME280;18905;42.668;23.364;2022-09-13T20:18:12;94967.72;;;22.52;65.26
28626;BME280;18905;42.668;23.364;2022-09-13T20:20:42;94929.22;;;22.49;62.27
28626;BME280;18905;42.668;23.364;2022-09-13T20:23:10;94891.47;;;22.39;63.12
28626;BME280;18905;42.668;23.364;2022-09-13T20:25:38;94889.53;;;22.46;63.35
28626;BME280;18905;42.668;23.364;2022-09-13T20:28:07;94894.66;;;22.20;62.18
28626;BME280;18905;42.668;23.364;2022-09-13T20:30:35;94892.34;;;21.80;64.38
28626;BME280;18905;42.668;23.364;2022-09-13T20:33:03;94957.50;;;22.21;65.67
28626;BME280;18905;42.668;23.364;2022-09-13T20:35:30;94908.06;;;21.76;66.15
28626;BME280;18905;42.668;23.364;2022-09-13T20:37:57;94986.22;;;22.48;64.96
28626;BME280;18905;42.668;23.364;2022-09-13T20:40:23;94976.75;;;22.11;62.81
28626;BME280;18905;42.668;23.364;2022-09-13T20:42:50;94896.19;;;21.16;64.64
28626;BME280;18905;42.668;23.364;2022-09-13T20:45:17;94929.84;;;20.95;65.54
28626;BME280;18905;42.668;23.364;2022-09-13T20:47:42;94905.97;;;21.17;67.63
28626;BME280;18905;42.668;23.364;2022-09-13T20:50:10;94955.47;;;21.52;64.10
28626;BME280;18905;42.668;23.364;2022-09-13T20:52:37;94944.78;;;21.12;64.71
28626;BME280;18905;42.668;23.364;2022-09-13T20:55:07;94909.41;;;20.14;72.49
28626;BME280;18905;42.668;23.364;2022-09-13T20:57:34;95017.69;;;21.06;65.92
28626;BME280;18905;42.668;23.364;2022-09-13T21:00:04;94977.91;;;20.71;65.50
28626;BME280;18905;42.668;23.364;2022-09-13T21:02:32;94937.84;;;20.56;68.80
28626;BME280;18905;42.668;23.364;2022-09-13T21:05:00;94947.66;;;20.57;64.99
28626;BME280;18905;42.668;23.364;2022-09-13T21:07:26;94898.09;;;20.26;66.32
28626;BME280;18905;42.668;23.364;2022-09-13T21:10:10;94969.63;;;20.64;68.41
28626;BME280;18905;42.668;23.364;2022-09-13T21:12:35;95003.69;;;21.35;67.81
28626;BME280;18905;42.668;23.364;2022-09-13T21:15:02;95004.56;;;21.67;64.12
28626;BME280;18905;42.668;23.364;2022-09-13T21:17:28;95039.88;;;21.55;64.59
28626;BME280;18905;42.668;23.364;2022-09-13T21:19:53;94916.13;;;21.02;64.45
28626;BME280;18905;42.668;23.364;2022-09-13T21:22:19;94944.06;;;21.32;64.15
28626;BME280;18905;42.668;23.364;2022-09-13T21:24:45;94922.03;;;21.15;62.39
28626;BME280;18905;42.668;23.364;2022-09-13T21:27:11;95033.31;;;21.91;64.04
28626;BME280;18905;42.668;23.364;2022-09-13T21:29:38;95029.00;;;21.93;62.61
28626;BME280;18905;42.668;23.364;2022-09-13T21:32:20;94916.59;;;21.39;61.47
28626;BME280;18905;42.668;23.364;2022-09-13T21:34:45;95028.63;;;22.05;62.68
28626;BME280;18905;42.668;23.364;2022-09-13T21:37:13;95030.97;;;22.07;63.11
28626;BME280;18905;42.668;23.364;2022-09-13T21:39:40;94988.97;;;22.03;62.85
